createdAt,value
2024-05-09T00:00:54.588Z,60.41
2024-05-09T00:01:54.793Z,60.37
2024-05-09T00:02:54.640Z,60.39
2024-05-09T00:03:54.801Z,60.39
2024-05-09T00:04:54.838Z,60.36
2024-05-09T00:05:54.794Z,60.44
2024-05-09T00:06:54.853Z,60.40
2024-05-09T00:07:54.978Z,60.37
2024-05-09T00:08:54.980Z,60.38
2024-05-09T00:09:54.976Z,60.42
2024-05-09T00:10:55.105Z,60.41
2024-05-09T00:11:55.206Z,60.37
2024-05-09T00:12:55.160Z,60.38
2024-05-09T00:13:55.215Z,60.41
2024-05-09T00:14:55.253Z,60.36
2024-05-09T00:15:55.270Z,60.34
2024-05-09T00:16:55.457Z,60.36
2024-05-09T00:17:55.549Z,60.37
2024-05-09T00:18:55.530Z,60.38
2024-05-09T00:19:55.485Z,60.40
2024-05-09T00:20:55.538Z,60.37
2024-05-09T00:21:55.631Z,60.39
2024-05-09T00:22:55.629Z,60.35
2024-05-09T00:23:55.672Z,60.35
2024-05-09T00:24:55.721Z,60.40
2024-05-09T00:25:55.862Z,60.37
2024-05-09T00:26:55.856Z,60.37
2024-05-09T00:27:55.896Z,60.39
2024-05-09T00:28:55.943Z,60.37
2024-05-09T00:29:55.981Z,60.38
2024-05-09T00:30:56.072Z,60.36
2024-05-09T00:31:56.173Z,60.35
2024-05-09T00:32:56.296Z,60.35
2024-05-09T00:33:56.471Z,60.38
2024-05-09T00:34:56.288Z,60.35
2024-05-09T00:35:56.301Z,60.43
2024-05-09T00:36:56.371Z,60.48
2024-05-09T00:37:56.451Z,60.54
2024-05-09T00:38:56.447Z,60.52
2024-05-09T00:39:56.492Z,60.54
2024-05-09T00:40:56.597Z,60.49
2024-05-09T00:41:56.624Z,60.43
2024-05-09T00:42:56.625Z,60.48
2024-05-09T00:43:56.714Z,60.46
2024-05-09T00:44:56.793Z,60.43
2024-05-09T00:45:56.775Z,60.43
2024-05-09T00:46:56.907Z,60.42
2024-05-09T00:47:57.090Z,60.46
2024-05-09T00:48:57.077Z,60.42
2024-05-09T00:49:57.012Z,60.41
2024-05-09T00:50:57.041Z,60.46
2024-05-09T00:51:57.251Z,60.46
2024-05-09T00:52:57.233Z,60.42
2024-05-09T00:53:57.210Z,60.43
2024-05-09T00:54:57.219Z,60.38
2024-05-09T00:55:57.297Z,60.38
2024-05-09T00:56:57.343Z,60.37
2024-05-09T00:57:57.368Z,60.38
2024-05-09T00:58:57.523Z,60.37
2024-05-09T00:59:57.480Z,60.38
2024-05-09T01:00:57.681Z,60.32
2024-05-09T01:01:57.761Z,60.35
2024-05-09T01:02:57.780Z,60.40
2024-05-09T01:03:57.833Z,60.33
2024-05-09T01:04:57.797Z,60.34
2024-05-09T01:05:57.828Z,60.36
2024-05-09T01:06:57.870Z,60.30
2024-05-09T01:07:57.924Z,60.34
2024-05-09T01:08:57.966Z,60.33
2024-05-09T01:09:57.988Z,60.32
2024-05-09T01:10:58.201Z,60.32
2024-05-09T01:11:58.220Z,60.31
2024-05-09T01:12:58.171Z,60.36
2024-05-09T01:13:58.271Z,60.33
2024-05-09T01:14:58.235Z,60.29
2024-05-09T01:15:58.291Z,60.32
2024-05-09T01:16:58.406Z,60.30
2024-05-09T01:17:58.558Z,60.32
2024-05-09T01:18:58.565Z,60.33
2024-05-09T01:19:58.506Z,60.33
2024-05-09T01:20:58.570Z,60.31
2024-05-09T01:21:58.612Z,60.33
2024-05-09T01:22:58.667Z,60.30
2024-05-09T01:23:58.674Z,60.35
2024-05-09T01:24:58.727Z,60.30
2024-05-09T01:25:58.878Z,60.29
2024-05-09T01:26:58.883Z,60.27
2024-05-09T01:27:58.876Z,60.22
2024-05-09T01:28:58.950Z,60.25
2024-05-09T01:29:58.981Z,60.30
2024-05-09T01:30:59.044Z,60.28
2024-05-09T01:31:59.502Z,60.25
2024-05-09T01:32:59.347Z,60.24
2024-05-09T01:33:59.258Z,60.23
2024-05-09T01:34:59.264Z,60.25
2024-05-09T01:35:59.297Z,60.22
2024-05-09T01:36:59.384Z,60.23
2024-05-09T01:37:59.457Z,60.23
2024-05-09T01:38:59.421Z,60.25
2024-05-09T01:39:59.478Z,60.26
2024-05-09T01:40:59.610Z,60.24
2024-05-09T01:41:59.616Z,60.25
2024-05-09T01:42:59.648Z,60.24
2024-05-09T01:43:59.744Z,60.24
2024-05-09T01:44:59.767Z,60.25
2024-05-09T01:45:59.791Z,60.22
2024-05-09T01:46:59.904Z,60.26
2024-05-09T01:48:00.257Z,60.22
2024-05-09T01:49:00.040Z,60.21
2024-05-09T01:50:00.032Z,60.20
2024-05-09T01:51:00.055Z,60.21
2024-05-09T01:52:00.125Z,60.20
2024-05-09T01:53:00.137Z,60.13
2024-05-09T01:54:00.192Z,60.15
2024-05-09T01:55:03.438Z,60.16
2024-05-09T01:56:01.282Z,60.19
2024-05-09T01:57:00.266Z,60.17
2024-05-09T01:58:00.230Z,60.18
2024-05-09T01:59:00.261Z,60.19
2024-05-09T02:00:00.247Z,60.22
2024-05-09T02:01:00.216Z,60.17
2024-05-09T02:02:00.319Z,60.20
2024-05-09T02:03:00.378Z,60.18
2024-05-09T02:04:00.421Z,60.21
2024-05-09T02:05:00.474Z,60.17
2024-05-09T02:06:00.152Z,60.15
2024-05-09T02:07:00.170Z,60.20
2024-05-09T02:08:00.129Z,60.17
2024-05-09T02:09:00.146Z,60.16
2024-05-09T02:10:00.190Z,60.17
2024-05-09T02:11:00.300Z,60.17
2024-05-09T02:12:00.178Z,60.15
2024-05-09T02:13:00.097Z,60.13
2024-05-09T02:14:00.299Z,60.17
2024-05-09T02:15:00.151Z,60.16
2024-05-09T02:16:00.051Z,60.13
2024-05-09T02:17:00.131Z,60.13
2024-05-09T02:18:00.197Z,60.13
2024-05-09T02:19:00.152Z,60.13
2024-05-09T02:20:00.101Z,60.14
2024-05-09T02:21:00.277Z,60.06
2024-05-09T02:22:00.053Z,60.06
2024-05-09T02:23:00.011Z,60.15
2024-05-09T02:23:59.989Z,60.11
2024-05-09T02:25:00.028Z,60.11
2024-05-09T02:26:00.057Z,60.13
2024-05-09T02:27:00.019Z,60.10
2024-05-09T02:28:00.086Z,60.12
2024-05-09T02:28:59.996Z,60.10
2024-05-09T02:29:59.931Z,60.12
2024-05-09T02:30:59.908Z,60.07
2024-05-09T02:32:00.091Z,60.08
2024-05-09T02:33:00.102Z,60.08
2024-05-09T02:34:00.030Z,60.10
2024-05-09T02:34:59.972Z,60.10
2024-05-09T02:35:59.883Z,60.10
2024-05-09T02:37:00.034Z,60.08
2024-05-09T02:38:00.081Z,60.08
2024-05-09T02:38:59.904Z,60.11
2024-05-09T02:39:59.867Z,60.09
2024-05-09T02:40:59.908Z,60.08
2024-05-09T02:41:59.853Z,60.05
2024-05-09T02:42:59.812Z,60.05
2024-05-09T02:43:59.881Z,60.08
2024-05-09T02:44:59.857Z,60.07
2024-05-09T02:45:59.781Z,60.11
2024-05-09T02:46:59.794Z,60.08
2024-05-09T02:48:00.203Z,60.03
2024-05-09T02:48:59.798Z,60.03
2024-05-09T02:49:59.791Z,60.05
2024-05-09T02:50:59.853Z,60.07
2024-05-09T02:51:59.766Z,60.05
2024-05-09T02:52:59.759Z,60.04
2024-05-09T02:53:59.699Z,60.05
2024-05-09T02:54:59.747Z,60.08
2024-05-09T02:55:59.699Z,60.04
2024-05-09T02:56:59.823Z,60.06
2024-05-09T02:57:59.764Z,60.06
2024-05-09T02:58:59.734Z,60.04
2024-05-09T02:59:59.656Z,60.10
2024-05-09T03:00:59.689Z,60.05
2024-05-09T03:01:59.771Z,60.03
2024-05-09T03:02:59.923Z,60.02
2024-05-09T03:03:59.839Z,60.04
2024-05-09T03:04:59.688Z,60.02
2024-05-09T03:05:59.608Z,60.06
2024-05-09T03:06:59.623Z,60.03
2024-05-09T03:07:59.635Z,60.01
2024-05-09T03:08:59.730Z,60.01
2024-05-09T03:09:59.601Z,60.02
2024-05-09T03:10:59.610Z,60.03
2024-05-09T03:11:59.687Z,60.04
2024-05-09T03:12:59.538Z,60.04
2024-05-09T03:13:59.586Z,60.04
2024-05-09T03:14:59.606Z,60.01
2024-05-09T03:15:59.546Z,60.02
2024-05-09T03:16:59.612Z,60.04
2024-05-09T03:17:59.960Z,60.02
2024-05-09T03:18:59.679Z,60.03
2024-05-09T03:19:59.487Z,60.01
2024-05-09T03:20:59.596Z,59.96
2024-05-09T03:21:59.515Z,60.03
2024-05-09T03:22:59.504Z,59.99
2024-05-09T03:23:59.430Z,60.00
2024-05-09T03:24:59.543Z,59.96
2024-05-09T03:25:59.504Z,59.98
2024-05-09T03:26:59.465Z,59.97
2024-05-09T03:27:59.587Z,59.96
2024-05-09T03:28:59.444Z,59.99
2024-05-09T03:29:59.384Z,59.99
2024-05-09T03:30:59.384Z,59.97
2024-05-09T03:31:59.524Z,59.99
2024-05-09T03:32:59.661Z,59.98
2024-05-09T03:33:59.552Z,59.95
2024-05-09T03:34:59.519Z,59.96
2024-05-09T03:35:59.337Z,59.95
2024-05-09T03:36:59.326Z,59.94
2024-05-09T03:37:59.430Z,59.97
2024-05-09T03:38:59.376Z,60.00
2024-05-09T03:39:59.302Z,59.99
2024-05-09T03:40:59.369Z,59.90
2024-05-09T03:41:59.321Z,59.95
2024-05-09T03:42:59.269Z,59.96
2024-05-09T03:43:59.311Z,59.92
2024-05-09T03:44:59.340Z,59.93
2024-05-09T03:45:59.320Z,59.91
2024-05-09T03:46:59.339Z,59.96
2024-05-09T03:47:59.479Z,59.90
2024-05-09T03:48:59.310Z,59.94
2024-05-09T03:49:59.283Z,59.93
2024-05-09T03:50:59.312Z,59.92
2024-05-09T03:51:59.220Z,59.93
2024-05-09T03:52:59.256Z,59.94
2024-05-09T03:53:59.169Z,59.95
2024-05-09T03:54:59.207Z,59.91
2024-05-09T03:55:59.296Z,59.86
2024-05-09T03:56:59.184Z,59.87
2024-05-09T03:57:59.504Z,59.90
2024-05-09T03:58:59.185Z,59.93
2024-05-09T03:59:59.137Z,59.90
2024-05-09T04:00:59.250Z,59.87
2024-05-09T04:01:59.297Z,59.92
2024-05-09T04:02:59.258Z,59.89
2024-05-09T04:03:59.134Z,59.88
2024-05-09T04:04:59.168Z,59.92
2024-05-09T04:05:59.074Z,59.94
2024-05-09T04:06:59.087Z,59.93
2024-05-09T04:07:59.130Z,59.86
2024-05-09T04:08:59.094Z,59.84
2024-05-09T04:09:59.029Z,59.87
2024-05-09T04:10:59.102Z,59.87
2024-05-09T04:11:59.167Z,59.89
2024-05-09T04:12:59.027Z,59.85
2024-05-09T04:13:59.021Z,59.90
2024-05-09T04:14:59.095Z,59.86
2024-05-09T04:15:58.999Z,59.93
2024-05-09T04:16:58.997Z,59.88
2024-05-09T04:17:59.218Z,59.87
2024-05-09T04:18:59.060Z,59.86
2024-05-09T04:19:58.995Z,59.87
2024-05-09T04:20:59.119Z,59.91
2024-05-09T04:21:58.924Z,59.88
2024-05-09T04:22:58.986Z,59.91
2024-05-09T04:23:58.937Z,59.93
2024-05-09T04:24:58.899Z,59.88
2024-05-09T04:25:58.951Z,59.84
2024-05-09T04:26:58.949Z,59.88
2024-05-09T04:27:58.867Z,59.91
2024-05-09T04:28:58.914Z,59.95
2024-05-09T04:29:58.871Z,59.95
2024-05-09T04:30:58.903Z,59.91
2024-05-09T04:31:59.040Z,59.90
2024-05-09T04:32:59.018Z,59.87
2024-05-09T04:33:58.934Z,59.83
2024-05-09T04:34:58.880Z,59.82
2024-05-09T04:35:58.807Z,59.83
2024-05-09T04:36:58.794Z,59.82
2024-05-09T04:37:58.787Z,59.79
2024-05-09T04:38:58.886Z,59.81
2024-05-09T04:39:58.775Z,59.80
2024-05-09T04:40:58.886Z,59.79
2024-05-09T04:41:58.766Z,59.83
2024-05-09T04:42:58.755Z,59.76
2024-05-09T04:43:58.798Z,59.77
2024-05-09T04:44:58.926Z,59.81
2024-05-09T04:45:58.707Z,59.75
2024-05-09T04:46:58.817Z,59.74
2024-05-09T04:47:59.226Z,59.70
2024-05-09T04:48:58.759Z,59.70
2024-05-09T04:49:58.729Z,59.72
2024-05-09T04:50:58.765Z,59.74
2024-05-09T04:51:58.712Z,59.75
2024-05-09T04:52:58.686Z,59.70
2024-05-09T04:53:58.644Z,59.70
2024-05-09T04:54:59.110Z,59.71
2024-05-09T04:55:58.658Z,59.66
2024-05-09T04:56:58.660Z,59.66
2024-05-09T04:57:58.619Z,59.70
2024-05-09T04:58:58.683Z,59.72
2024-05-09T04:59:58.607Z,59.70
2024-05-09T05:00:58.616Z,59.71
2024-05-09T05:01:58.676Z,59.71
2024-05-09T05:02:58.722Z,59.71
2024-05-09T05:03:58.816Z,59.67
2024-05-09T05:04:58.810Z,59.62
2024-05-09T05:05:58.641Z,59.67
2024-05-09T05:07:01.251Z,59.67
2024-05-09T05:07:58.584Z,59.66
2024-05-09T05:08:58.561Z,59.67
2024-05-09T05:09:58.519Z,59.63
2024-05-09T05:10:58.631Z,59.68
2024-05-09T05:11:58.573Z,59.63
2024-05-09T05:12:58.500Z,59.60
2024-05-09T05:13:58.526Z,59.58
2024-05-09T05:14:58.498Z,59.53
2024-05-09T05:15:58.797Z,59.55
2024-05-09T05:16:58.507Z,59.52
2024-05-09T05:17:58.581Z,59.51
2024-05-09T05:18:58.520Z,59.53
2024-05-09T05:19:58.479Z,59.48
2024-05-09T05:20:58.753Z,59.50
2024-05-09T05:21:58.413Z,59.46
2024-05-09T05:22:58.402Z,59.47
2024-05-09T05:23:58.395Z,59.45
2024-05-09T05:24:58.426Z,59.38
2024-05-09T05:25:58.396Z,59.41
2024-05-09T05:26:58.403Z,59.42
2024-05-09T05:27:58.348Z,59.32
2024-05-09T05:28:58.369Z,59.25
2024-05-09T05:29:58.326Z,59.20
2024-05-09T05:30:58.359Z,59.13
2024-05-09T05:31:58.420Z,58.97
2024-05-09T05:32:58.736Z,58.92
2024-05-09T05:33:58.331Z,58.82
2024-05-09T05:34:58.306Z,58.78
2024-05-09T05:35:58.289Z,58.78
2024-05-09T05:36:58.307Z,58.73
2024-05-09T05:37:58.301Z,58.70
2024-05-09T05:38:58.485Z,58.72
2024-05-09T05:39:58.259Z,58.71
2024-05-09T05:40:58.300Z,58.66
2024-05-09T05:41:58.240Z,58.67
2024-05-09T05:42:58.214Z,58.66
2024-05-09T05:43:58.291Z,58.64
2024-05-09T05:44:58.255Z,58.70
2024-05-09T05:45:58.196Z,58.77
2024-05-09T05:46:58.263Z,58.77
2024-05-09T05:47:58.383Z,58.76
2024-05-09T05:48:58.247Z,58.77
2024-05-09T05:49:58.220Z,58.78
2024-05-09T05:51:00.430Z,58.92
2024-05-09T05:51:58.135Z,58.97
2024-05-09T05:52:58.147Z,58.95
2024-05-09T05:53:58.249Z,59.03
2024-05-09T05:54:58.115Z,59.09
2024-05-09T05:55:58.159Z,59.19
2024-05-09T05:56:58.115Z,59.33
2024-05-09T05:57:58.082Z,59.34
2024-05-09T05:58:58.167Z,59.34
2024-05-09T05:59:58.050Z,59.33
2024-05-09T06:00:58.106Z,59.37
2024-05-09T06:01:58.117Z,59.38
2024-05-09T06:02:58.128Z,59.34
2024-05-09T06:03:58.177Z,59.40
2024-05-09T06:04:58.111Z,59.44
2024-05-09T06:05:58.097Z,60.36
2024-05-09T06:06:58.000Z,60.84
2024-05-09T06:07:58.094Z,60.47
2024-05-09T06:08:58.075Z,60.78
2024-05-09T06:09:57.983Z,61.00
2024-05-09T06:10:58.072Z,61.47
2024-05-09T06:11:58.115Z,61.26
2024-05-09T06:12:57.955Z,60.80
2024-05-09T06:13:58.002Z,60.97
2024-05-09T06:14:57.993Z,60.49
2024-05-09T06:15:57.924Z,60.34
2024-05-09T06:16:58.393Z,60.32
2024-05-09T06:17:58.136Z,60.19
2024-05-09T06:18:58.063Z,60.12
2024-05-09T06:19:57.896Z,60.25
2024-05-09T06:20:58.155Z,60.20
2024-05-09T06:21:57.893Z,60.24
2024-05-09T06:22:57.895Z,60.26
2024-05-09T06:23:57.867Z,60.17
2024-05-09T06:24:57.862Z,60.14
2024-05-09T06:25:57.902Z,60.05
2024-05-09T06:26:57.940Z,59.99
2024-05-09T06:27:57.826Z,59.95
2024-05-09T06:28:57.892Z,59.88
2024-05-09T06:29:57.796Z,59.91
2024-05-09T06:30:57.830Z,59.88
2024-05-09T06:32:00.139Z,59.95
2024-05-09T06:32:58.081Z,59.99
2024-05-09T06:33:58.058Z,60.02
2024-05-09T06:34:57.985Z,59.94
2024-05-09T06:35:57.864Z,59.94
2024-05-09T06:36:57.857Z,59.92
2024-05-09T06:37:57.864Z,60.04
2024-05-09T06:38:57.928Z,60.07
2024-05-09T06:39:57.944Z,60.16
2024-05-09T06:40:58.059Z,59.97
2024-05-09T06:41:58.098Z,60.04
2024-05-09T06:42:58.083Z,59.74
2024-05-09T06:43:58.217Z,59.93
2024-05-09T06:44:58.198Z,59.93
2024-05-09T06:45:58.250Z,59.85
2024-05-09T06:46:59.854Z,59.74
2024-05-09T06:47:58.483Z,59.59
2024-05-09T06:48:58.509Z,59.51
2024-05-09T06:49:58.300Z,59.49
2024-05-09T06:50:58.262Z,59.50
2024-05-09T06:51:58.278Z,59.57
2024-05-09T06:52:58.399Z,59.57
2024-05-09T06:53:58.370Z,59.49
2024-05-09T06:54:58.389Z,59.39
2024-05-09T06:55:58.499Z,59.35
2024-05-09T06:56:58.504Z,59.27
2024-05-09T06:57:58.557Z,59.14
2024-05-09T06:58:58.668Z,59.05
2024-05-09T06:59:58.733Z,58.94
2024-05-09T07:00:58.702Z,58.81
2024-05-09T07:01:58.801Z,58.60
2024-05-09T07:03:01.675Z,58.41
2024-05-09T07:03:58.866Z,58.29
2024-05-09T07:04:58.919Z,58.23
2024-05-09T07:05:58.890Z,58.32
2024-05-09T07:06:58.810Z,58.32
2024-05-09T07:07:58.765Z,58.25
2024-05-09T07:08:58.774Z,58.19
2024-05-09T07:09:58.770Z,58.16
2024-05-09T07:10:58.780Z,58.09
2024-05-09T07:11:58.798Z,58.03
2024-05-09T07:12:58.705Z,57.99
2024-05-09T07:13:58.742Z,57.90
2024-05-09T07:14:58.707Z,57.76
2024-05-09T07:15:58.710Z,57.69
2024-05-09T07:16:58.796Z,57.64
2024-05-09T07:17:58.821Z,57.62
2024-05-09T07:18:58.791Z,57.67
2024-05-09T07:19:58.853Z,57.58
2024-05-09T07:20:58.651Z,57.53
2024-05-09T07:21:58.646Z,57.47
2024-05-09T07:22:58.700Z,57.39
2024-05-09T07:23:58.659Z,57.21
2024-05-09T07:24:58.622Z,57.22
2024-05-09T07:25:58.604Z,57.14
2024-05-09T07:26:58.580Z,57.18
2024-05-09T07:27:58.709Z,57.09
2024-05-09T07:28:58.618Z,57.07
2024-05-09T07:29:58.588Z,57.05
2024-05-09T07:30:58.618Z,56.83
2024-05-09T07:31:58.587Z,56.89
2024-05-09T07:32:58.867Z,56.84
2024-05-09T07:33:58.612Z,57.00
2024-05-09T07:34:58.561Z,56.84
2024-05-09T07:35:58.490Z,56.86
2024-05-09T07:36:58.498Z,56.86
2024-05-09T07:37:58.666Z,56.85
2024-05-09T07:38:58.483Z,56.75
2024-05-09T07:39:58.596Z,56.69
2024-05-09T07:40:58.509Z,56.54
2024-05-09T07:41:58.454Z,56.67
2024-05-09T07:42:58.463Z,56.60
2024-05-09T07:43:58.447Z,56.73
2024-05-09T07:45:14.739Z,56.77
2024-05-09T07:46:23.407Z,56.81
2024-05-09T07:49:44.362Z,56.72
2024-05-09T07:51:47.595Z,56.71
2024-05-09T07:53:00.962Z,56.73
2024-05-09T07:53:22.079Z,56.77
2024-05-09T07:54:00.698Z,56.75
2024-05-09T07:54:58.759Z,56.82
2024-05-09T07:55:58.575Z,56.72
2024-05-09T07:56:58.404Z,56.77
2024-05-09T07:57:58.508Z,56.80
2024-05-09T07:58:58.293Z,56.86
2024-05-09T07:59:58.276Z,56.87
2024-05-09T08:00:58.408Z,56.78
2024-05-09T08:01:58.342Z,56.79
2024-05-09T08:02:58.378Z,56.60
2024-05-09T08:03:58.658Z,56.64
2024-05-09T08:04:58.347Z,56.68
2024-05-09T08:05:58.247Z,56.74
2024-05-09T08:06:58.274Z,56.77
2024-05-09T08:07:58.220Z,56.71
2024-05-09T08:09:02.821Z,56.70
2024-05-09T08:09:59.269Z,56.56
2024-05-09T08:10:58.201Z,56.60
2024-05-09T08:11:58.237Z,56.57
2024-05-09T08:12:58.228Z,56.53
2024-05-09T08:13:58.163Z,56.55
2024-05-09T08:14:58.153Z,56.57
2024-05-09T08:15:58.249Z,56.52
2024-05-09T08:16:58.220Z,56.50
2024-05-09T08:17:58.275Z,56.57
2024-05-09T08:18:58.310Z,56.59
2024-05-09T08:19:58.112Z,56.60
2024-05-09T08:20:58.108Z,56.68
2024-05-09T08:21:58.160Z,56.64
2024-05-09T08:22:58.089Z,56.79
2024-05-09T08:23:58.078Z,56.84
2024-05-09T08:24:58.132Z,56.96
2024-05-09T08:25:58.081Z,57.00
2024-05-09T08:26:58.063Z,57.10
2024-05-09T08:27:58.110Z,57.20
2024-05-09T08:28:58.037Z,57.09
2024-05-09T08:29:58.133Z,56.98
2024-05-09T08:30:58.156Z,56.99
2024-05-09T08:31:58.070Z,57.00
2024-05-09T08:32:58.080Z,56.99
2024-05-09T08:33:58.178Z,56.80
2024-05-09T08:34:58.002Z,56.78
2024-05-09T08:35:57.971Z,56.81
2024-05-09T08:37:01.775Z,56.83
2024-05-09T08:37:59.111Z,56.88
2024-05-09T08:38:57.939Z,56.86
2024-05-09T08:39:58.075Z,56.80
2024-05-09T08:40:57.921Z,56.79
2024-05-09T08:41:57.911Z,56.81
2024-05-09T08:42:58.017Z,56.90
2024-05-09T08:43:57.919Z,56.87
2024-05-09T08:44:57.927Z,56.87
2024-05-09T08:45:58.109Z,56.88
2024-05-09T08:46:57.885Z,56.95
2024-05-09T08:47:58.032Z,57.01
2024-05-09T08:48:57.973Z,56.95
2024-05-09T08:49:57.930Z,56.63
2024-05-09T08:50:57.840Z,56.63
2024-05-09T08:51:57.870Z,56.55
2024-05-09T08:52:57.831Z,56.34
2024-05-09T08:53:57.794Z,56.29
2024-05-09T08:54:57.837Z,56.30
2024-05-09T08:55:57.796Z,56.25
2024-05-09T08:56:57.793Z,56.25
2024-05-09T08:57:57.862Z,56.33
2024-05-09T08:58:57.762Z,56.21
2024-05-09T08:59:57.774Z,56.24
2024-05-09T09:00:57.946Z,56.16
2024-05-09T09:01:57.838Z,56.22
2024-05-09T09:02:57.764Z,56.13
2024-05-09T09:03:57.854Z,56.17
2024-05-09T09:04:57.801Z,56.00
2024-05-09T09:05:57.711Z,55.99
2024-05-09T09:06:58.759Z,56.04
2024-05-09T09:07:57.692Z,55.94
2024-05-09T09:08:57.727Z,55.98
2024-05-09T09:09:57.754Z,55.81
2024-05-09T09:10:57.676Z,55.71
2024-05-09T09:11:57.700Z,55.60
2024-05-09T09:12:57.639Z,55.60
2024-05-09T09:13:57.677Z,55.51
2024-05-09T09:14:57.643Z,55.48
2024-05-09T09:15:58.050Z,55.33
2024-05-09T09:16:57.704Z,55.37
2024-05-09T09:17:57.855Z,55.31
2024-05-09T09:18:58.042Z,55.18
2024-05-09T09:19:57.701Z,55.23
2024-05-09T09:20:57.563Z,55.18
2024-05-09T09:21:57.642Z,55.22
2024-05-09T09:22:57.552Z,55.27
2024-05-09T09:23:57.550Z,55.32
2024-05-09T09:24:57.632Z,55.45
2024-05-09T09:25:57.522Z,55.48
2024-05-09T09:26:57.559Z,55.49
2024-05-09T09:27:57.655Z,55.61
2024-05-09T09:28:57.492Z,55.63
2024-05-09T09:29:57.565Z,55.66
2024-05-09T09:30:57.506Z,55.77
2024-05-09T09:31:57.525Z,55.78
2024-05-09T09:32:57.808Z,55.82
2024-05-09T09:33:57.950Z,55.85
2024-05-09T09:34:57.711Z,55.84
2024-05-09T09:35:57.726Z,55.92
2024-05-09T09:36:57.800Z,55.90
2024-05-09T09:37:57.844Z,55.81
2024-05-09T09:38:57.916Z,55.76
2024-05-09T09:39:57.960Z,55.82
2024-05-09T09:40:58.019Z,55.77
2024-05-09T09:41:58.017Z,55.77
2024-05-09T09:42:58.199Z,55.66
2024-05-09T09:43:58.120Z,55.65
2024-05-09T09:45:04.615Z,55.67
2024-05-09T09:45:59.199Z,55.87
2024-05-09T09:46:58.221Z,56.08
2024-05-09T09:47:58.272Z,56.08
2024-05-09T09:48:58.307Z,55.96
2024-05-09T09:49:58.128Z,55.98
2024-05-09T09:50:58.119Z,56.09
2024-05-09T09:51:58.131Z,56.00
2024-05-09T09:52:58.095Z,56.04
2024-05-09T09:53:58.146Z,55.84
2024-05-09T09:54:58.115Z,55.80
2024-05-09T09:55:58.075Z,55.82
2024-05-09T09:56:58.066Z,55.80
2024-05-09T09:57:58.164Z,55.83
2024-05-09T09:58:58.079Z,55.76
2024-05-09T09:59:58.076Z,55.75
2024-05-09T10:00:58.149Z,55.74
2024-05-09T10:01:58.194Z,55.77
2024-05-09T10:02:58.066Z,55.81
2024-05-09T10:03:58.162Z,55.69
2024-05-09T10:04:58.108Z,55.81
2024-05-09T10:05:58.165Z,55.74
2024-05-09T10:06:58.027Z,55.82
2024-05-09T10:07:58.049Z,55.76
2024-05-09T10:08:58.062Z,55.73
2024-05-09T10:09:57.974Z,55.72
2024-05-09T10:10:58.096Z,55.74
2024-05-09T10:12:00.130Z,55.78
2024-05-09T10:12:57.995Z,55.84
2024-05-09T10:13:57.978Z,55.80
2024-05-09T10:14:57.928Z,55.81
2024-05-09T10:15:58.058Z,55.76
2024-05-09T10:16:57.894Z,55.77
2024-05-09T10:17:58.020Z,55.80
2024-05-09T10:18:58.262Z,55.85
2024-05-09T10:19:58.007Z,55.85
2024-05-09T10:20:58.177Z,55.87
2024-05-09T10:21:57.901Z,55.81
2024-05-09T10:22:57.884Z,55.89
2024-05-09T10:23:57.869Z,55.94
2024-05-09T10:24:57.878Z,55.97
2024-05-09T10:25:57.825Z,55.88
2024-05-09T10:26:57.803Z,55.88
2024-05-09T10:27:57.886Z,55.86
2024-05-09T10:28:57.793Z,56.27
2024-05-09T10:29:57.847Z,56.53
2024-05-09T10:30:57.797Z,56.78
2024-05-09T10:31:57.754Z,56.91
2024-05-09T10:32:57.825Z,56.93
2024-05-09T10:33:57.986Z,57.08
2024-05-09T10:34:57.914Z,57.23
2024-05-09T10:35:57.748Z,57.70
2024-05-09T10:36:57.780Z,57.47
2024-05-09T10:37:57.699Z,57.40
2024-05-09T10:38:57.680Z,57.58
2024-05-09T10:39:57.702Z,57.53
2024-05-09T10:40:57.672Z,57.67
2024-05-09T10:41:57.836Z,57.32
2024-05-09T10:42:57.759Z,57.34
2024-05-09T10:43:57.664Z,57.36
2024-05-09T10:44:57.695Z,57.42
2024-05-09T10:45:57.704Z,57.72
2024-05-09T10:46:57.655Z,58.08
2024-05-09T10:47:57.844Z,57.65
2024-05-09T10:48:57.885Z,57.69
2024-05-09T10:49:57.636Z,57.64
2024-05-09T10:50:57.583Z,57.80
2024-05-09T10:51:57.701Z,57.65
2024-05-09T10:52:57.574Z,57.69
2024-05-09T10:53:57.600Z,57.70
2024-05-09T10:54:57.567Z,57.73
2024-05-09T10:55:57.561Z,57.95
2024-05-09T10:56:57.536Z,57.83
2024-05-09T10:57:57.621Z,57.74
2024-05-09T10:58:57.632Z,57.92
2024-05-09T10:59:57.524Z,57.76
2024-05-09T11:00:57.622Z,57.84
2024-05-09T11:01:57.549Z,57.79
2024-05-09T11:02:57.590Z,57.77
2024-05-09T11:03:57.723Z,57.83
2024-05-09T11:04:57.560Z,57.84
2024-05-09T11:05:57.617Z,57.89
2024-05-09T11:06:57.593Z,57.88
2024-05-09T11:07:57.466Z,57.86
2024-05-09T11:08:57.445Z,58.09
2024-05-09T11:09:57.496Z,58.22
2024-05-09T11:10:57.446Z,58.14
2024-05-09T11:11:57.503Z,58.10
2024-05-09T11:12:57.432Z,58.04
2024-05-09T11:13:57.384Z,57.84
2024-05-09T11:14:57.387Z,57.96
2024-05-09T11:15:57.400Z,58.38
2024-05-09T11:16:57.351Z,57.94
2024-05-09T11:17:57.469Z,57.96
2024-05-09T11:18:57.891Z,58.04
2024-05-09T11:19:57.461Z,58.03
2024-05-09T11:20:57.326Z,58.10
2024-05-09T11:21:57.352Z,59.20
2024-05-09T11:22:57.293Z,58.43
2024-05-09T11:23:57.311Z,57.98
2024-05-09T11:24:57.332Z,57.99
2024-05-09T11:25:57.279Z,58.58
2024-05-09T11:26:57.260Z,58.14
2024-05-09T11:27:57.365Z,58.04
2024-05-09T11:28:57.250Z,58.78
2024-05-09T11:29:57.374Z,58.04
2024-05-09T11:30:57.263Z,58.42
2024-05-09T11:31:57.325Z,58.35
2024-05-09T11:32:57.348Z,58.12
2024-05-09T11:33:57.389Z,58.35
2024-05-09T11:34:57.195Z,58.03
2024-05-09T11:35:57.230Z,57.97
2024-05-09T11:36:57.230Z,57.98
2024-05-09T11:37:57.172Z,58.00
2024-05-09T11:38:57.163Z,58.24
2024-05-09T11:39:57.218Z,58.03
2024-05-09T11:40:57.173Z,58.07
2024-05-09T11:41:57.169Z,58.34
2024-05-09T11:42:57.242Z,58.48
2024-05-09T11:43:57.124Z,58.28
2024-05-09T11:44:57.115Z,58.08
2024-05-09T11:45:57.249Z,58.11
2024-05-09T11:46:57.096Z,58.25
2024-05-09T11:47:57.187Z,58.26
2024-05-09T11:48:57.235Z,58.04
2024-05-09T11:49:57.219Z,58.05
2024-05-09T11:50:57.120Z,58.11
2024-05-09T11:51:57.099Z,58.28
2024-05-09T11:52:57.074Z,58.03
2024-05-09T11:53:57.123Z,58.07
2024-05-09T11:54:57.086Z,58.04
2024-05-09T11:55:56.988Z,58.07
2024-05-09T11:56:57.023Z,58.06
2024-05-09T11:57:57.086Z,58.12
2024-05-09T11:58:57.062Z,58.07
2024-05-09T11:59:57.068Z,58.12
2024-05-09T12:00:57.080Z,58.11
2024-05-09T12:01:57.018Z,58.10
2024-05-09T12:02:56.990Z,58.07
2024-05-09T12:03:57.185Z,58.13
2024-05-09T12:04:56.999Z,58.09
2024-05-09T12:05:57.139Z,58.05
2024-05-09T12:06:57.022Z,58.11
2024-05-09T12:07:56.954Z,58.09
2024-05-09T12:08:56.900Z,58.06
2024-05-09T12:09:56.911Z,58.05
2024-05-09T12:10:57.373Z,58.02
2024-05-09T12:11:56.928Z,58.02
2024-05-09T12:12:56.912Z,58.04
2024-05-09T12:13:56.879Z,58.02
2024-05-09T12:14:56.818Z,58.07
2024-05-09T12:15:56.879Z,58.07
2024-05-09T12:16:56.913Z,58.08
2024-05-09T12:17:59.089Z,58.07
2024-05-09T12:18:56.884Z,58.11
2024-05-09T12:19:56.781Z,58.07
2024-05-09T12:20:56.771Z,58.07
2024-05-09T12:21:56.782Z,58.07
2024-05-09T12:22:56.758Z,58.04
2024-05-09T12:23:56.780Z,58.09
2024-05-09T12:24:56.819Z,58.05
2024-05-09T12:25:56.729Z,58.08
2024-05-09T12:26:56.719Z,58.15
2024-05-09T12:27:56.731Z,58.08
2024-05-09T12:28:56.718Z,58.12
2024-05-09T12:29:56.723Z,58.14
2024-05-09T12:30:56.728Z,58.12
2024-05-09T12:31:56.722Z,58.09
2024-05-09T12:32:56.784Z,58.12
2024-05-09T12:33:56.811Z,58.11
2024-05-09T12:34:56.662Z,58.36
2024-05-09T12:35:56.856Z,58.12
2024-05-09T12:36:56.667Z,58.09
2024-05-09T12:37:56.810Z,58.09
2024-05-09T12:38:56.623Z,58.06
2024-05-09T12:39:56.666Z,58.10
2024-05-09T12:40:56.681Z,58.08
2024-05-09T12:41:56.613Z,58.14
2024-05-09T12:42:56.623Z,58.14
2024-05-09T12:43:56.581Z,58.16
2024-05-09T12:44:56.617Z,58.17
2024-05-09T12:45:57.569Z,58.21
2024-05-09T12:46:56.540Z,58.15
2024-05-09T12:47:56.631Z,58.18
2024-05-09T12:48:56.856Z,58.17
2024-05-09T12:49:56.677Z,58.12
2024-05-09T12:50:56.573Z,58.10
2024-05-09T12:51:56.528Z,58.05
2024-05-09T12:52:56.701Z,58.14
2024-05-09T12:53:56.559Z,58.11
2024-05-09T12:54:56.559Z,58.11
2024-05-09T12:56:00.197Z,58.07